createdAt,value
2023-04-08T00:00:37.890Z,7.9
2023-04-08T00:01:50.705Z,7.8
2023-04-08T00:03:03.926Z,7.9
2023-04-08T00:04:16.912Z,7.9
2023-04-08T00:05:29.737Z,7.9
2023-04-08T00:06:42.699Z,7.9
2023-04-08T00:07:55.839Z,7.9
2023-04-08T00:09:08.670Z,7.8
2023-04-08T00:10:21.904Z,7.9
2023-04-08T00:11:34.693Z,7.8
2023-04-08T00:12:47.840Z,7.9
2023-04-08T00:14:00.777Z,7.8
2023-04-08T00:15:13.678Z,7.9
2023-04-08T00:16:26.804Z,7.9
2023-04-08T00:17:39.737Z,7.9
2023-04-08T00:18:52.921Z,7.9
2023-04-08T00:20:05.741Z,7.9
2023-04-08T00:21:18.659Z,7.8
2023-04-08T00:22:31.732Z,7.9
2023-04-08T00:23:44.708Z,7.8
2023-04-08T00:24:57.837Z,7.8
2023-04-08T00:26:10.754Z,7.9
2023-04-08T00:27:23.701Z,7.8
2023-04-08T00:28:36.727Z,7.8
2023-04-08T00:29:49.710Z,7.8
2023-04-08T00:31:02.816Z,7.8
2023-04-08T00:32:15.708Z,7.8
2023-04-08T00:33:28.674Z,7.8
2023-04-08T00:34:41.877Z,7.8
2023-04-08T00:35:54.750Z,7.8
2023-04-08T00:37:07.824Z,7.8
2023-04-08T00:38:20.721Z,7.8
2023-04-08T00:39:33.732Z,7.8
2023-04-08T00:40:46.699Z,7.8
2023-04-08T00:41:59.419Z,7.8
2023-04-08T00:43:12.751Z,7.8
2023-04-08T00:44:25.782Z,7.8
2023-04-08T00:45:38.708Z,7.9
2023-04-08T00:46:51.814Z,7.9
2023-04-08T00:48:04.791Z,7.9
2023-04-08T00:49:17.851Z,7.9
2023-04-08T00:50:30.771Z,7.9
2023-04-08T00:51:43.717Z,7.9
2023-04-08T00:52:56.775Z,7.9
2023-04-08T00:54:09.782Z,7.9
2023-04-08T00:55:22.789Z,7.9
2023-04-08T00:56:35.755Z,7.9
2023-04-08T00:57:48.764Z,7.9
2023-04-08T00:59:01.750Z,7.9
2023-04-08T01:00:14.748Z,7.9
2023-04-08T01:01:27.937Z,7.9
2023-04-08T01:02:40.834Z,7.9
2023-04-08T01:03:53.824Z,7.9
2023-04-08T01:05:06.809Z,7.9
2023-04-08T01:06:19.628Z,7.9
2023-04-08T01:07:32.775Z,7.9
2023-04-08T01:08:45.756Z,7.9
2023-04-08T01:09:58.748Z,7.9
2023-04-08T01:11:11.757Z,7.9
2023-04-08T01:12:24.781Z,7.9
2023-04-08T01:13:37.745Z,7.9
2023-04-08T01:14:50.773Z,7.9
2023-04-08T01:16:03.802Z,7.9
2023-04-08T01:17:16.935Z,7.9
2023-04-08T01:18:29.745Z,7.9
2023-04-08T01:19:42.797Z,7.9
2023-04-08T01:20:55.935Z,7.9
2023-04-08T01:22:08.734Z,7.9
2023-04-08T01:23:21.802Z,7.9
2023-04-08T01:24:34.979Z,7.9
2023-04-08T01:25:47.770Z,7.9
2023-04-08T01:27:00.788Z,7.9
2023-04-08T01:28:13.734Z,7.9
2023-04-08T01:29:26.778Z,7.9
2023-04-08T01:30:39.784Z,7.9
2023-04-08T01:31:52.767Z,7.9
2023-04-08T01:33:05.821Z,7.9
2023-04-08T01:34:18.754Z,7.9
2023-04-08T01:35:31.813Z,7.9
2023-04-08T01:36:44.798Z,7.9
2023-04-08T01:37:57.960Z,7.9
2023-04-08T01:39:10.778Z,7.8
2023-04-08T01:40:23.740Z,7.8
2023-04-08T01:41:36.787Z,7.8
2023-04-08T01:42:49.742Z,7.8
2023-04-08T01:44:02.741Z,7.8
2023-04-08T01:45:15.752Z,7.8
2023-04-08T01:46:28.821Z,7.8
2023-04-08T01:47:41.769Z,7.8
2023-04-08T01:48:54.750Z,7.8
2023-04-08T01:50:07.983Z,7.8
2023-04-08T01:51:20.743Z,7.8
2023-04-08T01:52:33.961Z,7.8
2023-04-08T01:53:46.807Z,7.8
2023-04-08T01:54:59.802Z,7.8
2023-04-08T01:56:12.811Z,7.8
2023-04-08T01:57:26.338Z,7.8
2023-04-08T01:58:38.792Z,7.8
2023-04-08T01:59:51.768Z,7.8
2023-04-08T02:01:04.762Z,7.8
2023-04-08T02:02:17.527Z,7.8
2023-04-08T02:03:31.009Z,7.8
2023-04-08T02:04:43.960Z,7.8
2023-04-08T02:05:56.761Z,7.8
2023-04-08T02:07:09.960Z,7.8
2023-04-08T02:08:22.729Z,7.8
2023-04-08T02:09:35.838Z,7.8
2023-04-08T02:10:48.805Z,7.8
2023-04-08T02:12:01.793Z,7.8
2023-04-08T02:13:14.766Z,7.8
2023-04-08T02:14:27.766Z,7.8
2023-04-08T02:15:40.791Z,7.8
2023-04-08T02:16:53.820Z,7.9
2023-04-08T02:18:06.825Z,7.9
2023-04-08T02:19:19.828Z,7.9
2023-04-08T02:20:32.819Z,7.9
2023-04-08T02:21:45.793Z,7.9
2023-04-08T02:22:58.814Z,7.9
2023-04-08T02:24:11.836Z,7.9
2023-04-08T02:25:24.853Z,7.9
2023-04-08T02:26:37.603Z,7.9
2023-04-08T02:27:50.810Z,7.9
2023-04-08T02:29:03.812Z,7.9
2023-04-08T02:30:16.843Z,7.9
2023-04-08T02:31:29.859Z,7.9
2023-04-08T02:32:42.907Z,7.9
2023-04-08T02:33:55.825Z,7.9
2023-04-08T02:35:08.809Z,7.9
2023-04-08T02:36:22.028Z,7.9
2023-04-08T02:37:34.819Z,7.9
2023-04-08T02:38:48.011Z,7.8
2023-04-08T02:40:00.878Z,7.8
2023-04-08T02:41:13.750Z,7.8
2023-04-08T02:42:26.806Z,7.8
2023-04-08T02:43:39.792Z,7.8
2023-04-08T02:44:52.781Z,7.8
2023-04-08T02:46:05.921Z,7.8
2023-04-08T02:47:18.738Z,7.8
2023-04-08T02:48:31.785Z,7.9
2023-04-08T02:49:44.799Z,7.9
2023-04-08T02:50:57.842Z,7.9
2023-04-08T02:52:10.807Z,7.9
2023-04-08T02:53:23.789Z,7.9
2023-04-08T02:54:36.813Z,7.9
2023-04-08T02:55:49.812Z,7.9
2023-04-08T02:57:02.821Z,7.8
2023-04-08T02:58:15.829Z,7.8
2023-04-08T02:59:28.793Z,7.8
2023-04-08T03:00:41.853Z,7.8
2023-04-08T03:01:54.829Z,7.8
2023-04-08T03:03:07.833Z,7.8
2023-04-08T03:04:20.772Z,7.8
2023-04-08T03:05:33.835Z,7.8
2023-04-08T03:06:46.969Z,7.8
2023-04-08T03:07:59.787Z,7.8
2023-04-08T03:09:13.018Z,7.8
2023-04-08T03:10:25.882Z,7.8
2023-04-08T03:11:38.806Z,7.8
2023-04-08T03:12:51.503Z,7.8
2023-04-08T03:14:04.799Z,7.8
2023-04-08T03:15:17.805Z,7.9
2023-04-08T03:16:30.920Z,7.9
2023-04-08T03:17:43.870Z,7.9
2023-04-08T03:18:56.837Z,7.9
2023-04-08T03:20:09.802Z,7.8
2023-04-08T03:21:22.885Z,7.9
2023-04-08T03:22:35.800Z,7.8
2023-04-08T03:23:48.807Z,7.8
2023-04-08T03:25:01.831Z,7.9
2023-04-08T03:26:14.822Z,7.9
2023-04-08T03:27:28.431Z,7.9
2023-04-08T03:28:40.842Z,7.9
2023-04-08T03:29:53.836Z,7.9
2023-04-08T03:31:06.851Z,7.9
2023-04-08T03:32:19.840Z,7.9
2023-04-08T03:33:32.872Z,7.8
2023-04-08T03:34:45.833Z,7.9
2023-04-08T03:35:58.916Z,7.9
2023-04-08T03:37:12.008Z,7.9
2023-04-08T03:38:24.853Z,7.7
2023-04-08T03:39:37.865Z,7.7
2023-04-08T03:40:50.847Z,7.7
2023-04-08T03:42:03.875Z,7.7
2023-04-08T03:43:16.722Z,7.7
2023-04-08T03:44:29.792Z,7.7
2023-04-08T03:45:42.830Z,7.7
2023-04-08T03:46:56.004Z,7.7
2023-04-08T03:48:08.857Z,7.7
2023-04-08T03:49:22.012Z,7.7
2023-04-08T03:50:35.016Z,7.6
2023-04-08T03:51:47.982Z,7.6
2023-04-08T03:53:00.852Z,7.6
2023-04-08T03:54:13.807Z,7.6
2023-04-08T03:55:26.840Z,7.6
2023-04-08T03:56:39.854Z,7.6
2023-04-08T03:57:52.996Z,7.6
2023-04-08T03:59:05.850Z,7.6
2023-04-08T04:00:18.849Z,7.6
2023-04-08T04:01:31.839Z,7.6
2023-04-08T04:02:44.922Z,7.6
2023-04-08T04:03:58.016Z,7.6
2023-04-08T04:05:10.828Z,7.4
2023-04-08T04:06:23.905Z,7.5
2023-04-08T04:07:37.058Z,7.5
2023-04-08T04:08:49.998Z,7.5
2023-04-08T04:10:03.086Z,7.5
2023-04-08T04:11:15.954Z,7.5
2023-04-08T04:12:28.882Z,7.5
2023-04-08T04:13:41.866Z,7.5
2023-04-08T04:14:54.873Z,7.5
2023-04-08T04:16:07.932Z,7.5
2023-04-08T04:17:20.907Z,7.5
2023-04-08T04:18:33.894Z,7.5
2023-04-08T04:19:46.875Z,7.5
2023-04-08T04:20:59.884Z,7.5
2023-04-08T04:22:12.915Z,7.5
2023-04-08T04:23:26.003Z,7.5
2023-04-08T04:24:38.864Z,7.5
2023-04-08T04:25:51.818Z,7.3
2023-04-08T04:27:04.818Z,7.3
2023-04-08T04:28:17.830Z,7.3
2023-04-08T04:29:30.802Z,7.3
2023-04-08T04:30:43.897Z,7.2
2023-04-08T04:31:56.855Z,7.2
2023-04-08T04:33:09.850Z,7.2
2023-04-08T04:34:22.800Z,7.3
2023-04-08T04:35:35.796Z,7.3
2023-04-08T04:36:48.813Z,7.3
2023-04-08T04:38:01.810Z,7.3
2023-04-08T04:39:14.792Z,7.3
2023-04-08T04:40:28.058Z,7.2
2023-04-08T04:41:40.962Z,7.2
2023-04-08T04:42:53.849Z,7.2
2023-04-08T04:44:06.864Z,7.2
2023-04-08T04:45:19.850Z,7.2
2023-04-08T04:46:32.975Z,7.2
2023-04-08T04:47:45.876Z,7.2
2023-04-08T04:48:58.839Z,7.2
2023-04-08T04:50:11.849Z,7.2
2023-04-08T04:51:24.713Z,7.2
2023-04-08T04:52:37.839Z,7.2
2023-04-08T04:53:50.683Z,7.2
2023-04-08T04:55:03.732Z,7.1
2023-04-08T04:55:05.761Z,7.1
2023-04-08T04:56:17.415Z,7.1
2023-04-08T04:57:29.994Z,7.1
2023-04-08T04:58:42.864Z,7.1
2023-04-08T04:59:55.888Z,7.1
2023-04-08T05:01:08.849Z,7.1
2023-04-08T05:02:21.904Z,7.1
2023-04-08T05:03:34.868Z,7.1
2023-04-08T05:04:47.956Z,7.1
2023-04-08T05:06:00.880Z,7.1
2023-04-08T05:07:13.882Z,6.9
2023-04-08T05:08:28.001Z,6.9
2023-04-08T05:09:39.873Z,6.9
2023-04-08T05:10:53.312Z,6.9
2023-04-08T05:12:05.976Z,6.8
2023-04-08T05:13:18.905Z,6.8
2023-04-08T05:14:31.927Z,6.8
2023-04-08T05:15:44.972Z,6.8
2023-04-08T05:16:57.933Z,6.8
2023-04-08T05:18:10.980Z,6.7
2023-04-08T05:19:23.873Z,6.7
2023-04-08T05:20:36.964Z,6.7
2023-04-08T05:21:49.895Z,6.7
2023-04-08T05:23:03.029Z,6.7
2023-04-08T05:24:15.868Z,6.7
2023-04-08T05:25:28.898Z,6.7
2023-04-08T05:26:41.892Z,6.7
2023-04-08T05:27:54.897Z,6.5
2023-04-08T05:29:07.922Z,6.5
2023-04-08T05:30:20.936Z,6.5
2023-04-08T05:31:34.113Z,6.5
2023-04-08T05:32:46.945Z,6.6
2023-04-08T05:33:59.888Z,6.7
2023-04-08T05:35:12.910Z,6.7
2023-04-08T05:36:25.885Z,6.7
2023-04-08T05:37:38.948Z,6.7
2023-04-08T05:38:51.843Z,6.7
2023-04-08T05:40:04.547Z,6.7
2023-04-08T05:41:17.650Z,6.7
2023-04-08T05:42:30.958Z,6.7
2023-04-08T05:43:43.518Z,6.7
2023-04-08T05:44:56.714Z,6.7
2023-04-08T05:46:09.253Z,6.8
2023-04-08T05:47:22.633Z,6.8
2023-04-08T05:48:35.636Z,6.8
2023-04-08T05:49:50.196Z,6.8
2023-04-08T05:51:01.606Z,6.9
2023-04-08T05:52:14.507Z,6.9
2023-04-08T05:53:27.551Z,6.9
2023-04-08T05:54:40.581Z,7.1
2023-04-08T05:55:53.539Z,7.1
2023-04-08T05:57:08.128Z,7.1
2023-04-08T05:58:19.585Z,7.1
2023-04-08T05:59:32.583Z,7.1
2023-04-08T06:00:45.546Z,7.1
2023-04-08T06:01:58.567Z,7.1
2023-04-08T06:03:11.533Z,7.2
2023-04-08T06:04:24.609Z,7.2
2023-04-08T06:05:37.534Z,7.2
2023-04-08T06:06:50.710Z,7.2
2023-04-08T06:08:03.583Z,7.2
2023-04-08T06:09:16.550Z,7.2
2023-04-08T06:10:29.540Z,7.2
2023-04-08T06:11:43.003Z,7.2
2023-04-08T06:12:55.571Z,7.2
2023-04-08T06:14:08.520Z,7.3
2023-04-08T06:15:21.573Z,7.3
2023-04-08T06:16:34.564Z,7.3
2023-04-08T06:17:47.584Z,7.3
2023-04-08T06:19:00.542Z,7.3
2023-04-08T06:20:13.505Z,7.3
2023-04-08T06:21:26.559Z,7.3
2023-04-08T06:22:39.548Z,7.4
2023-04-08T06:23:52.673Z,7.5
2023-04-08T06:25:05.724Z,7.5
2023-04-08T06:26:18.509Z,7.4
2023-04-08T06:27:31.541Z,7.4
2023-04-08T06:28:44.560Z,7.4
2023-04-08T06:29:57.619Z,7.4
2023-04-08T06:31:10.548Z,7.6
2023-04-08T06:32:23.734Z,7.6
2023-04-08T06:33:36.764Z,7.6
2023-04-08T06:34:49.591Z,7.6
2023-04-08T06:36:02.808Z,7.6
2023-04-08T06:37:15.576Z,7.6
2023-04-08T06:38:28.575Z,7.6
2023-04-08T06:39:41.757Z,7.7
2023-04-08T06:40:54.570Z,7.7
2023-04-08T06:42:07.595Z,7.7
2023-04-08T06:43:20.498Z,7.7
2023-04-08T06:44:33.557Z,7.7
2023-04-08T06:45:46.584Z,7.7
2023-04-08T06:46:59.588Z,7.7
2023-04-08T06:48:12.454Z,7.7
2023-04-08T06:49:25.419Z,7.7
2023-04-08T06:50:38.595Z,7.7
2023-04-08T06:51:51.778Z,7.7
2023-04-08T06:53:04.652Z,7.7
2023-04-08T06:54:18.131Z,7.7
2023-04-08T06:55:30.684Z,7.7
2023-04-08T06:56:43.575Z,7.7
2023-04-08T06:57:56.945Z,7.7
2023-04-08T06:59:09.431Z,7.7
2023-04-08T07:00:22.600Z,7.7
2023-04-08T07:01:35.696Z,7.7
2023-04-08T07:05:14.584Z,7.7
2023-04-08T07:06:27.594Z,7.7
2023-04-08T07:07:41.019Z,7.7
2023-04-08T07:08:54.007Z,7.8
2023-04-08T07:10:07.783Z,7.8
2023-04-08T07:11:19.578Z,7.8
2023-04-08T07:12:32.569Z,7.9
2023-04-08T07:13:45.802Z,7.9
2023-04-08T07:14:58.631Z,8.1
2023-04-08T07:16:12.031Z,8.1
2023-04-08T07:17:24.657Z,8.1
2023-04-08T07:18:37.622Z,8.2
2023-04-08T07:19:50.619Z,8.2
2023-04-08T07:21:03.596Z,8.3
2023-04-08T07:22:16.622Z,8.4
2023-04-08T07:23:29.626Z,8.4
2023-04-08T07:24:42.476Z,8.3
2023-04-08T07:25:55.812Z,8.2
2023-04-08T07:27:08.630Z,8.2
2023-04-08T07:28:21.770Z,8.2
2023-04-08T07:29:34.482Z,8.4
2023-04-08T07:30:47.535Z,8.4
2023-04-08T07:32:00.676Z,8.4
2023-04-08T07:33:13.583Z,8.4
2023-04-08T07:34:26.290Z,8.4
2023-04-08T07:35:39.527Z,8.4
2023-04-08T07:36:52.995Z,8.4
2023-04-08T07:38:05.648Z,8.4
2023-04-08T07:39:18.613Z,8.3
2023-04-08T07:40:31.634Z,8.4
2023-04-08T07:41:44.478Z,8.4
2023-04-08T07:42:57.664Z,8.4
2023-04-08T07:44:10.628Z,8.4
2023-04-08T07:45:23.632Z,8.4
2023-04-08T07:46:36.736Z,8.4
2023-04-08T07:47:49.692Z,8.6
2023-04-08T07:49:02.650Z,8.6
2023-04-08T07:50:15.668Z,8.6
2023-04-08T07:51:28.465Z,8.6
2023-04-08T07:52:41.563Z,8.6
2023-04-08T07:53:54.692Z,8.6
2023-04-08T07:55:07.508Z,8.6
2023-04-08T07:56:20.591Z,8.6
2023-04-08T07:57:33.633Z,8.7
2023-04-08T07:58:46.649Z,8.8
2023-04-08T07:59:59.643Z,8.8
2023-04-08T08:01:12.625Z,8.8
2023-04-08T08:02:25.582Z,8.8
2023-04-08T08:03:38.821Z,8.7
2023-04-08T08:04:51.582Z,8.7
2023-04-08T08:06:04.604Z,8.7
2023-04-08T08:07:17.772Z,8.7
2023-04-08T08:08:30.630Z,8.8
2023-04-08T08:09:43.499Z,8.7
2023-04-08T08:10:57.018Z,8.8
2023-04-08T08:12:09.617Z,8.8
2023-04-08T08:13:22.668Z,8.8
2023-04-08T08:14:35.318Z,8.8
2023-04-08T08:15:48.661Z,8.9
2023-04-08T08:17:02.184Z,9
2023-04-08T08:18:14.648Z,9
2023-04-08T08:19:27.661Z,9
2023-04-08T08:20:40.620Z,9
2023-04-08T08:21:53.501Z,9.2
2023-04-08T08:23:06.641Z,9.2
2023-04-08T08:24:19.640Z,9.1
2023-04-08T08:25:33.019Z,9.1
2023-04-08T08:26:45.841Z,9.2
2023-04-08T08:27:58.665Z,9.2
2023-04-08T08:29:11.635Z,9.1
2023-04-08T08:30:24.607Z,9.1
2023-04-08T08:31:38.020Z,9.1
2023-04-08T08:32:50.898Z,9.2
2023-04-08T08:34:03.694Z,9.2
2023-04-08T08:35:16.685Z,9.2
2023-04-08T08:36:29.655Z,9.2
2023-04-08T08:37:42.679Z,9.2
2023-04-08T08:38:55.607Z,9.2
2023-04-08T08:40:08.649Z,9.1
2023-04-08T08:41:21.750Z,9
2023-04-08T08:42:34.601Z,9
2023-04-08T08:43:47.541Z,9
2023-04-08T08:45:00.794Z,9
2023-04-08T08:46:13.672Z,9.2
2023-04-08T08:47:26.884Z,9.2
2023-04-08T08:48:39.663Z,9.2
2023-04-08T08:49:52.758Z,9.2
2023-04-08T08:54:44.622Z,9.1
2023-04-08T09:06:55.088Z,9.3
2023-04-08T09:09:20.909Z,9.3
2023-04-08T09:21:30.563Z,9.4
2023-04-08T09:28:48.480Z,9.7
2023-04-08T09:30:01.855Z,9.7
2023-04-08T09:36:06.718Z,9.8
2023-04-08T09:37:19.706Z,9.8
2023-04-08T09:38:32.704Z,9.9
2023-04-08T09:39:45.662Z,9.9
2023-04-08T09:40:58.671Z,9.9
2023-04-08T09:42:11.544Z,10
2023-04-08T09:44:37.522Z,10
2023-04-08T09:48:16.730Z,10.2
2023-04-08T09:49:29.694Z,10.2
2023-04-08T09:50:42.692Z,10.2
2023-04-08T09:51:55.754Z,10.3
2023-04-08T09:53:08.660Z,10.3
2023-04-08T09:54:21.887Z,10.3
2023-04-08T09:55:34.851Z,10.3
2023-04-08T09:56:47.693Z,10.3
2023-04-08T09:58:00.827Z,10.3
2023-04-08T09:59:13.881Z,10.3
2023-04-08T10:00:26.683Z,10.3
2023-04-08T10:01:39.949Z,10.3
2023-04-08T10:02:52.757Z,10.3
2023-04-08T10:04:05.763Z,10.3
2023-04-08T10:05:19.274Z,10.3
2023-04-08T10:06:31.798Z,10.3
2023-04-08T10:07:44.707Z,10.3
2023-04-08T10:08:58.540Z,10.3
2023-04-08T10:10:11.071Z,10.3
2023-04-08T10:10:13.468Z,10.3
2023-04-08T10:11:23.737Z,10.3
2023-04-08T10:12:36.662Z,10.4
2023-04-08T10:13:49.800Z,10.4
2023-04-08T10:15:02.787Z,10.5
2023-04-08T10:15:07.489Z,10.5
2023-04-08T10:16:15.780Z,10.6
2023-04-08T10:17:28.793Z,10.5
2023-04-08T10:18:41.704Z,10.4
2023-04-08T10:19:54.797Z,10.4
2023-04-08T10:21:07.637Z,10.4
2023-04-08T10:22:20.669Z,10.4
2023-04-08T10:24:46.671Z,10.4
2023-04-08T10:25:59.654Z,10.4
2023-04-08T10:27:12.720Z,10.4
2023-04-08T10:28:25.700Z,10.4
2023-04-08T10:29:38.708Z,10.3
2023-04-08T10:30:51.718Z,10.3
2023-04-08T10:32:04.757Z,10.3
2023-04-08T10:33:17.789Z,10.4
2023-04-08T10:34:30.638Z,10.4
2023-04-08T10:35:43.774Z,10.4
2023-04-08T10:36:56.681Z,10.6
2023-04-08T10:38:09.699Z,10.6
2023-04-08T10:39:22.632Z,10.6
2023-04-08T10:40:35.695Z,10.7
2023-04-08T10:41:48.660Z,10.7
2023-04-08T10:43:01.553Z,10.8
2023-04-08T10:44:14.707Z,10.8
2023-04-08T10:45:28.331Z,10.8
2023-04-08T10:46:40.810Z,11
2023-04-08T10:47:53.579Z,11.1
2023-04-08T10:49:06.728Z,11.1
2023-04-08T10:50:19.697Z,11.1
2023-04-08T10:51:33.786Z,11.1
2023-04-08T10:52:45.692Z,11.1
2023-04-08T10:53:58.560Z,11.2
2023-04-08T10:55:11.696Z,11.3
2023-04-08T10:56:25.050Z,11.4
2023-04-08T10:57:37.731Z,11.4
2023-04-08T10:58:50.598Z,11.5
2023-04-08T11:00:04.101Z,11.7
2023-04-08T11:01:16.705Z,11.8
2023-04-08T11:02:29.744Z,11.8
2023-04-08T11:03:42.654Z,12
2023-04-08T11:06:08.749Z,12.1
2023-04-08T11:08:34.739Z,12.4
2023-04-08T11:09:47.776Z,12.4
2023-04-08T11:11:00.735Z,12.6
2023-04-08T11:12:13.668Z,12.6
2023-04-08T11:13:26.766Z,12.5
2023-04-08T11:14:39.687Z,12.4
2023-04-08T11:15:52.427Z,12.6
2023-04-08T11:17:05.830Z,12.4
2023-04-08T11:18:18.692Z,12.3
2023-04-08T11:19:31.719Z,12.3
2023-04-08T11:20:44.725Z,12.3
2023-04-08T11:21:57.786Z,12.3
2023-04-08T11:23:10.546Z,12.3
2023-04-08T11:24:23.731Z,12.3
2023-04-08T11:25:36.737Z,12.2
2023-04-08T11:26:49.708Z,12.2
2023-04-08T11:28:02.737Z,12.1
2023-04-08T11:29:15.723Z,12
2023-04-08T11:30:28.714Z,12
2023-04-08T11:31:41.787Z,12
2023-04-08T11:32:54.747Z,12.1
2023-04-08T11:34:07.729Z,12
2023-04-08T11:35:20.721Z,12
2023-04-08T11:36:33.710Z,12
2023-04-08T11:37:46.746Z,12.2
2023-04-08T11:38:59.921Z,12.2
2023-04-08T11:40:12.780Z,12
2023-04-08T11:41:25.570Z,12
2023-04-08T11:42:38.536Z,12.1
2023-04-08T11:43:51.941Z,11.9
2023-04-08T11:45:04.672Z,11.9
2023-04-08T11:46:18.377Z,11.9
2023-04-08T11:47:31.332Z,11.9
2023-04-08T11:48:43.352Z,11.9
2023-04-08T11:49:56.703Z,11.9
2023-04-08T11:51:09.710Z,11.9
2023-04-08T11:52:23.010Z,11.9
2023-04-08T11:53:35.632Z,11.9
2023-04-08T11:54:48.713Z,11.8
2023-04-08T11:56:01.684Z,11.8
2023-04-08T11:57:14.651Z,11.8
2023-04-08T11:58:28.379Z,11.8
2023-04-08T11:59:40.712Z,11.7
2023-04-08T12:00:54.055Z,11.7
2023-04-08T12:02:06.609Z,11.5
2023-04-08T12:03:19.763Z,11.6
2023-04-08T12:04:33.202Z,11.5
2023-04-08T12:05:45.848Z,11.4
2023-04-08T12:06:58.769Z,11.4
2023-04-08T12:08:11.813Z,11.4
2023-04-08T12:09:24.908Z,11.2
2023-04-08T12:10:37.765Z,11.2
2023-04-08T12:11:50.724Z,11.2
2023-04-08T12:13:04.087Z,11.2
2023-04-08T12:14:16.596Z,11.2
2023-04-08T12:15:29.584Z,11.3
2023-04-08T12:16:43.009Z,11.2
2023-04-08T12:17:55.776Z,11.2
2023-04-08T12:19:08.926Z,11.2
2023-04-08T12:20:21.777Z,11.2
2023-04-08T12:21:34.796Z,11.2
2023-04-08T12:22:47.743Z,11.2
2023-04-08T12:24:01.016Z,11
2023-04-08T12:25:13.816Z,11
2023-04-08T12:26:26.864Z,11.2
2023-04-08T12:27:39.878Z,11.2
2023-04-08T12:28:52.824Z,11.2
2023-04-08T12:30:06.024Z,11.2
2023-04-08T12:31:18.744Z,11.2
2023-04-08T12:32:31.859Z,11.2
2023-04-08T12:33:45.340Z,11.1
2023-04-08T12:34:57.917Z,11.2
2023-04-08T12:36:13.505Z,11
2023-04-08T12:37:23.894Z,11
2023-04-08T12:38:36.709Z,11
2023-04-08T12:39:49.758Z,11
2023-04-08T12:41:02.814Z,11
2023-04-08T12:42:15.934Z,11
2023-04-08T12:43:28.702Z,11
2023-04-08T12:44:41.813Z,11
2023-04-08T12:45:54.790Z,11
2023-04-08T12:47:07.905Z,11
2023-04-08T12:48:20.734Z,11
2023-04-08T12:49:36.874Z,11
2023-04-08T12:50:46.747Z,11
2023-04-08T12:51:59.761Z,11
2023-04-08T12:53:12.960Z,11
2023-04-08T12:54:25.750Z,11.1
2023-04-08T12:55:38.750Z,11.2
2023-04-08T12:56:51.601Z,11.2
2023-04-08T12:58:04.823Z,11.2
2023-04-08T12:59:18.084Z,11.2
2023-04-08T13:00:30.868Z,11.2
2023-04-08T13:01:43.825Z,11.2
2023-04-08T13:02:56.813Z,11.2
2023-04-08T13:04:09.958Z,11.2
2023-04-08T13:05:33.102Z,11.2
2023-04-08T13:06:35.954Z,11.2
2023-04-08T13:07:48.822Z,11.3
2023-04-08T13:09:01.751Z,11.3
2023-04-08T13:10:14.982Z,11.3
2023-04-08T13:11:27.799Z,11.3
2023-04-08T13:12:40.874Z,11.3
2023-04-08T13:13:53.678Z,11.3
2023-04-08T13:15:06.785Z,11.3
2023-04-08T13:16:19.985Z,11.3
2023-04-08T13:17:33.201Z,11.3
2023-04-08T13:18:45.797Z,11.3
2023-04-08T13:19:58.938Z,11.4
2023-04-08T13:21:11.771Z,11.4
2023-04-08T13:22:24.593Z,11.4
2023-04-08T13:23:37.753Z,11.4
2023-04-08T13:24:50.848Z,11.5
2023-04-08T13:26:03.760Z,11.6
2023-04-08T13:27:16.768Z,11.6
2023-04-08T13:28:29.610Z,11.6
2023-04-08T13:29:42.818Z,11.6
2023-04-08T13:30:55.877Z,11.6
2023-04-08T13:32:08.929Z,11.7
2023-04-08T13:33:21.720Z,11.7
2023-04-08T13:34:34.728Z,11.7
2023-04-08T13:35:47.849Z,11.7
2023-04-08T13:38:13.705Z,11.7
2023-04-08T13:39:26.766Z,11.7
2023-04-08T13:40:39.721Z,11.7
2023-04-08T13:41:52.762Z,11.7
2023-04-08T13:43:06.411Z,11.7
2023-04-08T13:44:18.736Z,11.7
2023-04-08T13:45:31.741Z,11.7
2023-04-08T13:46:44.868Z,11.8
2023-04-08T13:47:57.688Z,11.8
2023-04-08T13:49:10.743Z,11.8
2023-04-08T13:50:23.754Z,11.8
2023-04-08T13:51:36.726Z,11.7
2023-04-08T13:52:49.756Z,11.7
2023-04-08T13:54:02.754Z,11.7
2023-04-08T13:55:15.749Z,11.7
2023-04-08T13:56:28.725Z,11.7
2023-04-08T13:57:41.914Z,11.8
2023-04-08T13:58:57.309Z,11.8
2023-04-08T14:00:07.615Z,11.7
2023-04-08T14:01:21.394Z,11.7
2023-04-08T14:02:33.773Z,11.7
2023-04-08T14:04:59.841Z,11.7
2023-04-08T14:06:12.736Z,11.7
2023-04-08T14:07:25.675Z,11.7
2023-04-08T14:08:38.745Z,11.7
2023-04-08T14:09:51.889Z,11.8
2023-04-08T14:11:04.587Z,11.8
2023-04-08T14:12:17.720Z,11.7
2023-04-08T14:13:30.435Z,11.7
2023-04-08T14:14:43.688Z,11.7
2023-04-08T14:15:56.782Z,11.7
2023-04-08T14:17:09.828Z,11.8
2023-04-08T14:18:22.749Z,11.8
2023-04-08T14:19:35.571Z,11.8
2023-04-08T14:20:48.719Z,11.8
2023-04-08T14:22:01.560Z,11.8
2023-04-08T14:23:14.440Z,11.8
2023-04-08T14:24:27.588Z,11.8
2023-04-08T14:25:40.593Z,12
2023-04-08T14:26:53.581Z,11.9
2023-04-08T14:28:06.572Z,11.8
2023-04-08T14:29:19.584Z,11.8
2023-04-08T14:30:32.667Z,11.8
2023-04-08T14:31:45.590Z,11.8
2023-04-08T14:34:11.839Z,11.9
2023-04-08T14:35:24.779Z,12
2023-04-08T14:36:37.905Z,12
2023-04-08T14:39:04.129Z,12
2023-04-08T14:41:29.461Z,12.1
2023-04-08T14:47:34.342Z,12
2023-04-08T14:51:13.329Z,12
2023-04-08T14:52:26.482Z,12
2023-04-08T14:54:52.402Z,12
2023-04-08T14:57:18.588Z,12
2023-04-08T14:58:31.414Z,12
2023-04-08T14:59:44.551Z,12
2023-04-08T15:00:57.426Z,12
2023-04-08T15:02:10.657Z,12
2023-04-08T15:03:23.767Z,12
2023-04-08T15:07:02.673Z,12
2023-04-08T15:08:15.615Z,11.8
2023-04-08T15:09:28.632Z,11.8
2023-04-08T15:10:41.597Z,11.8
2023-04-08T15:11:54.602Z,11.8
2023-04-08T15:13:07.481Z,11.7
2023-04-08T15:14:20.607Z,11.7
2023-04-08T15:15:33.357Z,11.8
2023-04-08T15:16:47.256Z,11.7
2023-04-08T15:17:59.677Z,11.7
2023-04-08T15:20:26.187Z,11.7
2023-04-08T15:21:38.632Z,11.7
2023-04-08T15:22:51.563Z,11.7
2023-04-08T15:24:04.492Z,11.7
2023-04-08T15:25:17.618Z,11.8
2023-04-08T15:26:30.613Z,11.7
2023-04-08T15:27:43.629Z,11.7
2023-04-08T15:28:56.663Z,11.7
2023-04-08T15:30:10.703Z,11.6
2023-04-08T15:31:22.983Z,11.6
2023-04-08T15:32:35.639Z,11.6
2023-04-08T15:33:48.860Z,11.4
2023-04-08T15:35:01.601Z,11.4
2023-04-08T15:36:14.662Z,11.4
2023-04-08T15:37:27.604Z,11.4
2023-04-08T15:38:40.787Z,11.5
2023-04-08T15:41:06.601Z,11.5
2023-04-08T15:42:19.590Z,11.4
2023-04-08T15:43:32.459Z,11.3
2023-04-08T15:44:45.573Z,11.3
2023-04-08T15:45:58.901Z,11.3
2023-04-08T15:47:11.768Z,11.2
2023-04-08T15:48:24.577Z,11.2
2023-04-08T15:49:37.709Z,11.2
2023-04-08T15:50:50.767Z,11.2
2023-04-08T15:52:03.442Z,11.2
2023-04-08T15:53:16.581Z,11.1
2023-04-08T15:54:31.000Z,11.1
2023-04-08T15:55:42.652Z,11.1
2023-04-08T15:56:55.640Z,11.1
2023-04-08T15:58:08.578Z,11.1
2023-04-08T15:59:21.568Z,11.1
2023-04-08T16:00:34.737Z,11.1
2023-04-08T16:01:47.630Z,11.1
2023-04-08T16:03:00.739Z,11.1
2023-04-08T16:04:13.686Z,11.1
2023-04-08T16:05:27.676Z,10.9
2023-04-08T16:06:39.581Z,10.9
2023-04-08T16:07:52.562Z,10.9
2023-04-08T16:09:05.574Z,10.9
2023-04-08T16:10:18.760Z,10.9
2023-04-08T16:11:31.585Z,10.9
2023-04-08T16:12:44.555Z,10.9
2023-04-08T16:13:57.687Z,10.9
2023-04-08T16:15:10.569Z,10.9
2023-04-08T16:16:23.614Z,10.9
2023-04-08T16:17:36.707Z,10.8
2023-04-08T16:18:49.696Z,10.8
2023-04-08T16:20:02.593Z,10.8
2023-04-08T16:21:15.584Z,10.8
2023-04-08T16:22:28.580Z,10.8
2023-04-08T16:23:41.642Z,10.8
2023-04-08T16:24:54.611Z,10.7
2023-04-08T16:26:07.748Z,10.7
2023-04-08T16:27:20.600Z,10.7
2023-04-08T16:28:33.606Z,10.7
2023-04-08T16:29:46.603Z,10.5
2023-04-08T16:30:59.588Z,10.5
2023-04-08T16:32:12.597Z,10.6
2023-04-08T16:33:25.643Z,10.6
2023-04-08T16:34:38.600Z,10.6
2023-04-08T16:35:51.723Z,10.6
2023-04-08T16:37:05.303Z,10.6
2023-04-08T16:38:17.721Z,10.6
2023-04-08T16:39:30.586Z,10.5
2023-04-08T16:40:43.678Z,10.4
2023-04-08T16:41:56.770Z,10.4
2023-04-08T16:43:09.616Z,10.4
2023-04-08T16:44:22.644Z,10.4
2023-04-08T16:45:35.619Z,10.4
2023-04-08T16:46:48.733Z,10.4
2023-04-08T16:48:01.640Z,10.4
2023-04-08T16:49:16.260Z,10.4
2023-04-08T16:50:27.641Z,10.4
2023-04-08T16:51:40.989Z,10.4
2023-04-08T16:52:53.593Z,10.2
2023-04-08T16:54:06.675Z,10.2
2023-04-08T16:55:19.703Z,10.2
2023-04-08T16:56:32.689Z,10.2
2023-04-08T16:57:45.834Z,10.2
2023-04-08T16:58:58.625Z,10.2
2023-04-08T17:00:11.625Z,10.2
2023-04-08T17:01:24.667Z,10.2
2023-04-08T17:02:37.757Z,10.2
2023-04-08T17:03:51.066Z,10.2
2023-04-08T17:05:03.642Z,10.2
2023-04-08T17:06:16.647Z,10.2
2023-04-08T17:07:29.815Z,10.2
2023-04-08T17:08:42.650Z,10.2
2023-04-08T17:09:55.616Z,10.2
2023-04-08T17:11:08.608Z,10
2023-04-08T17:12:21.529Z,10
2023-04-08T17:13:34.636Z,10
2023-04-08T17:14:47.693Z,10
2023-04-08T17:16:00.683Z,10
2023-04-08T17:17:13.754Z,10
2023-04-08T17:18:26.720Z,10
2023-04-08T17:19:39.646Z,10
2023-04-08T17:20:52.638Z,10
2023-04-08T17:22:05.735Z,9.8
2023-04-08T17:23:18.640Z,9.9
2023-04-08T17:24:31.681Z,9.9
2023-04-08T17:25:44.745Z,9.7
2023-04-08T17:26:57.712Z,9.7
2023-04-08T17:28:10.682Z,9.7
2023-04-08T17:29:23.617Z,9.6
2023-04-08T17:30:36.752Z,9.6
2023-04-08T17:31:49.670Z,9.6
2023-04-08T17:33:02.674Z,9.4
2023-04-08T17:34:15.503Z,9.5
2023-04-08T17:35:28.639Z,9.5
2023-04-08T17:36:41.684Z,9.5
2023-04-08T17:37:54.809Z,9.4
2023-04-08T17:39:07.702Z,9.3